Time;durP1;ratioP1;P1;durP2;ratioP2;P2;SDS_P1;SDS_P2;PMS_P1;PMS_P2;Temp;Humidity;BMP_temperature;BMP_pressure;BME280_temperature;BME280_humidity;BME280_pressure;Samples;Min_cycle;Max_cycle;Signal;HPM_P1;HPM_P2
2022/11/17 00:02:04;;;;;;;46.33;29.33;;;;;;;-143.84;79.85;45195.69;5131453;27;20433;-75
2022/11/17 00:04:31;;;;;;;41.37;28.80;;;;;;;-143.84;79.94;45205.22;5133629;27;20450;-74
2022/11/17 00:07:00;;;;;;;40.97;27.10;;;;;;;-143.84;80.24;45197.59;5133322;27;20449;-75
2022/11/17 00:09:27;;;;;;;46.93;29.80;;;;;;;-143.84;80.40;45178.56;5134073;27;20446;-75
2022/11/17 00:14:40;;;;;;;39.20;26.87;;;;;;;-143.84;80.20;45184.25;5134088;27;20903;-75
2022/11/17 00:17:08;;;;;;;36.13;25.80;;;;;;;-143.84;80.36;45170.94;5133602;27;20476;-75
2022/11/17 00:22:21;;;;;;;40.50;26.40;;;;;;;-143.84;80.65;45163.31;5133833;27;20459;-75
2022/11/17 00:24:49;;;;;;;37.87;28.20;;;;;;;-143.84;80.42;45161.41;5133731;27;20434;-75
2022/11/17 00:27:17;;;;;;;40.67;27.57;;;;;;;-143.84;80.66;45159.50;5133756;27;20954;-75
2022/11/17 00:29:44;;;;;;;42.70;28.30;;;;;;;-143.84;80.34;45195.69;5133774;27;20449;-75
2022/11/17 00:34:57;;;;;;;39.50;28.13;;;;;;;-143.84;80.58;45174.75;5133692;27;20426;-75
2022/11/17 00:37:26;;;;;;;41.43;28.90;;;;;;;-143.84;80.85;45169.03;5133231;27;20511;-75
2022/11/17 00:39:53;;;;;;;42.93;28.80;;;;;;;-143.84;80.63;45186.16;5133725;27;20441;-75
2022/11/17 00:42:20;;;;;;;43.27;27.20;;;;;;;-143.84;80.62;45170.94;5133161;27;20545;-75
2022/11/17 00:44:47;;;;;;;44.90;27.10;;;;;;;-143.84;80.86;45189.97;5133256;27;20445;-74
2022/11/17 00:47:14;;;;;;;45.10;26.50;;;;;;;-143.84;81.22;45191.88;5133046;27;20461;-75
2022/11/17 00:49:42;;;;;;;38.13;26.63;;;;;;;-143.84;81.01;45163.31;5133220;27;20451;-74
2022/11/17 00:52:10;;;;;;;39.10;24.33;;;;;;;-143.84;81.14;45161.41;5133308;27;20445;-75
2022/11/17 00:54:38;;;;;;;34.00;25.00;;;;;;;-143.84;80.99;45180.47;5133186;27;20438;-75
2022/11/17 00:57:05;;;;;;;39.27;26.07;;;;;;;-143.84;81.10;45189.97;5133228;27;20518;-75
2022/11/17 00:59:32;;;;;;;38.57;24.57;;;;;;;-143.84;80.99;45188.06;5133225;27;20441;-75
2022/11/17 01:01:59;;;;;;;34.90;24.67;;;;;;;-143.84;81.13;45178.56;5133122;27;20438;-75
2022/11/17 01:04:27;;;;;;;31.47;24.00;;;;;;;-143.84;81.10;45178.56;5132888;27;20873;-74
2022/11/17 01:06:54;;;;;;;38.53;26.10;;;;;;;-143.84;80.93;45170.94;5132849;27;20434;-74
2022/11/17 01:09:23;;;;;;;37.27;26.07;;;;;;;-143.84;80.89;45209.03;5132180;27;20445;-75
2022/11/17 01:11:53;;;;;;;35.63;24.13;;;;;;;-143.84;81.08;45201.41;5131391;27;20438;-75
2022/11/17 01:14:22;;;;;;;33.97;23.80;;;;;;;-143.84;81.09;45193.78;5131256;27;20443;-74
2022/11/17 01:16:50;;;;;;;33.40;25.07;;;;;;;-143.84;81.04;45205.22;5132059;27;20487;-75
2022/11/17 01:19:18;;;;;;;33.77;24.77;;;;;;;-143.84;81.03;45180.47;5132701;27;20433;-75
2022/11/17 01:21:46;;;;;;;33.30;23.90;;;;;;;-143.84;80.79;45155.69;5132532;27;20444;-75
2022/11/17 01:24:15;;;;;;;31.37;22.20;;;;;;;-143.84;81.28;45176.66;5132487;27;20447;-75
2022/11/17 01:26:44;;;;;;;35.43;24.20;;;;;;;-143.84;81.07;45189.97;5132478;27;20498;-75
2022/11/17 01:29:15;;;;;;;43.73;25.20;;;;;;;-143.84;81.27;45195.69;5130993;27;21015;-75
2022/11/17 01:31:43;;;;;;;45.60;27.00;;;;;;;-143.84;81.38;45189.97;5131596;27;20445;-75
2022/11/17 01:34:11;;;;;;;36.27;25.73;;;;;;;-143.84;81.19;45182.38;5131637;27;20442;-75
2022/11/17 01:39:22;;;;;;;39.70;25.70;;;;;;;-143.84;81.47;45176.66;5130667;27;20429;-74
2022/11/17 01:41:49;;;;;;;34.37;24.97;;;;;;;-143.84;81.50;45197.59;5131831;27;20836;-75
2022/11/17 01:44:55;;;;;;;37.67;25.43;;;;;;;-143.84;81.58;45191.88;5132138;27;20950;-75
2022/11/17 01:47:26;;;;;;;39.43;25.20;;;;;;;-143.84;81.42;45159.50;5102410;27;20456;-74
2022/11/17 01:49:59;;;;;;;35.43;25.67;;;;;;;-143.84;81.81;45163.31;5132038;27;20441;-74
2022/11/17 01:52:28;;;;;;;34.80;25.20;;;;;;;-143.84;81.76;45176.66;5131574;27;20446;-74
2022/11/17 01:54:57;;;;;;;32.23;24.07;;;;;;;-143.84;81.81;45191.88;5131053;27;20977;-74
2022/11/17 01:57:31;;;;;;;35.30;25.20;;;;;;;-143.84;81.74;45199.50;5131876;27;21068;-75
2022/11/17 02:00:04;;;;;;;37.80;25.60;;;;;;;-143.84;81.30;45189.97;5131809;27;20430;-75
2022/11/17 02:02:33;;;;;;;37.47;23.77;;;;;;;-143.84;81.34;45186.16;5131841;27;21135;-75
2022/11/17 02:05:07;;;;;;;38.43;23.70;;;;;;;-143.84;81.18;45195.69;5131973;27;20850;-75
2022/11/17 02:07:36;;;;;;;33.70;23.20;;;;;;;-143.84;81.69;45199.50;5119270;27;20460;-75
2022/11/17 02:10:05;;;;;;;40.40;26.00;;;;;;;-143.84;81.17;45176.66;5090817;28;20441;-74
2022/11/17 02:12:33;;;;;;;33.20;23.37;;;;;;;-143.84;80.95;45172.84;5090801;28;20444;-75
2022/11/17 02:15:04;;;;;;;38.70;23.97;;;;;;;-143.84;81.61;45174.75;5090558;28;20508;-75
2022/11/17 02:17:36;;;;;;;32.67;23.03;;;;;;;-143.84;81.35;45195.69;5090719;28;20471;-75
2022/11/17 02:20:09;;;;;;;33.23;24.37;;;;;;;-143.84;81.37;45180.47;5090728;28;20839;-74
2022/11/17 02:23:20;;;;;;;32.37;23.70;;;;;;;-143.84;81.56;45176.66;5090806;28;21308;-75
2022/11/17 02:26:01;;;;;;;31.93;22.47;;;;;;;-143.84;81.26;45163.31;5036244;28;20965;-75
2022/11/17 02:28:33;;;;;;;30.33;23.03;;;;;;;-143.84;81.18;45210.94;5090136;28;20504;-74
2022/11/17 02:31:17;;;;;;;30.70;22.23;;;;;;;-143.84;80.80;45184.25;5089601;28;20451;-74
2022/11/17 02:33:55;;;;;;;26.60;20.57;;;;;;;-143.84;81.04;45170.94;5090131;28;20435;-75
2022/11/17 02:36:31;;;;;;;34.10;23.60;;;;;;;-143.84;80.63;45155.69;5090449;28;20476;-74
2022/11/17 02:39:05;;;;;;;32.00;22.90;;;;;;;-143.84;80.47;45142.38;5090220;28;20435;-74
2022/11/17 02:41:40;;;;;;;31.37;23.30;;;;;;;-143.84;80.30;45203.31;5081749;28;20486;-74
2022/11/17 02:44:12;;;;;;;36.90;23.63;;;;;;;-143.84;80.43;45176.66;5090180;28;20524;-75
2022/11/17 02:46:45;;;;;;;32.10;24.20;;;;;;;-143.84;80.28;45150.00;5090319;28;20784;-74
2022/11/17 02:49:19;;;;;;;36.83;22.87;;;;;;;-143.84;80.39;45174.75;5090404;28;20432;-75
2022/11/17 02:51:50;;;;;;;37.70;24.60;;;;;;;-143.84;80.12;45169.03;5089957;28;20524;-74
2022/11/17 02:54:18;;;;;;;33.27;24.67;;;;;;;-143.84;80.08;45167.13;5089951;28;20435;-74
2022/11/17 02:56:45;;;;;;;34.23;24.13;;;;;;;-143.84;79.96;45157.59;5090172;28;20491;-74
2022/11/17 02:59:17;;;;;;;28.10;21.57;;;;;;;-143.84;80.02;45207.13;5089928;28;20438;-74
2022/11/17 03:02:19;;;;;;;32.20;23.77;;;;;;;-143.84;79.87;45151.91;5089709;28;20451;-74
2022/11/17 03:05:00;;;;;;;33.43;22.17;;;;;;;-143.84;79.40;45193.78;5089609;28;20428;-74
2022/11/17 03:07:40;;;;;;;33.03;23.30;;;;;;;-143.84;79.51;45189.97;5089774;28;20454;-74
2022/11/17 03:10:14;;;;;;;38.73;23.93;;;;;;;-143.84;79.19;45180.47;5089462;28;20442;-74
2022/11/17 03:12:47;;;;;;;31.20;22.40;;;;;;;-143.84;79.33;45197.59;5089684;28;20444;-74
2022/11/17 03:15:25;;;;;;;35.47;23.97;;;;;;;-143.84;79.49;45188.06;5089539;28;20950;-74
2022/11/17 03:18:02;;;;;;;35.13;23.73;;;;;;;-143.84;79.84;45165.22;5089173;28;20921;-74
2022/11/17 03:20:39;;;;;;;31.70;23.23;;;;;;;-143.84;79.31;45186.16;5089281;28;20444;-74
2022/11/17 03:23:10;;;;;;;31.37;23.90;;;;;;;-143.84;79.45;45167.13;5088634;28;20436;-74
2022/11/17 03:25:41;;;;;;;32.20;24.27;;;;;;;-143.84;79.31;45180.47;5088597;28;20440;-74
2022/11/17 03:28:11;;;;;;;37.17;23.93;;;;;;;-143.84;79.22;45186.16;5089377;28;20443;-75
2022/11/17 03:30:45;;;;;;;39.00;25.57;;;;;;;-143.84;79.06;45184.25;5089362;28;20443;-75
2022/11/17 03:33:17;;;;;;;31.20;23.43;;;;;;;-143.84;79.33;45205.22;5089073;28;21021;-75
2022/11/17 03:35:55;;;;;;;33.37;24.10;;;;;;;-143.84;79.09;45167.13;5088581;28;21382;-75
2022/11/17 03:38:27;;;;;;;32.43;22.47;;;;;;;-143.84;79.26;45150.00;5088602;28;21065;-75
2022/11/17 03:40:58;;;;;;;34.73;23.63;;;;;;;-143.84;79.54;45201.41;5081418;28;21014;-75
2022/11/17 03:43:27;;;;;;;30.07;23.13;;;;;;;-143.84;79.09;45178.56;5087663;28;20448;-75
2022/11/17 03:46:02;;;;;;;39.40;23.30;;;;;;;-143.84;78.89;45163.31;5089378;28;20973;-75
2022/11/17 03:48:35;;;;;;;36.47;24.40;;;;;;;-143.84;79.03;45186.16;5089018;28;21139;-75
2022/11/17 03:51:08;;;;;;;37.53;26.10;;;;;;;-143.84;78.95;45188.06;5088517;28;20443;-75
2022/11/17 03:53:36;;;;;;;35.90;24.30;;;;;;;-143.84;78.88;45157.59;5088926;28;20451;-75
2022/11/17 03:56:12;;;;;;;37.30;26.40;;;;;;;-143.84;79.23;45180.47;5089404;28;20446;-75
2022/11/17 03:58:47;;;;;;;37.13;25.57;;;;;;;-143.84;79.30;45201.41;5088755;28;20487;-75
2022/11/17 04:01:17;;;;;;;40.33;24.73;;;;;;;-143.84;79.17;45184.25;5089135;28;20929;-75
2022/11/17 04:03:44;;;;;;;38.33;25.37;;;;;;;-143.84;79.27;45167.13;5089625;28;20857;-75
2022/11/17 04:06:11;;;;;;;36.07;25.13;;;;;;;-143.84;79.47;45180.47;5089215;28;20438;-75
2022/11/17 04:08:39;;;;;;;33.63;24.17;;;;;;;-143.84;79.66;45186.16;5108829;28;20451;-75
2022/11/17 04:16:36;;;;;;;33.53;23.63;;;;;;;-143.84;80.01;45193.78;5109520;28;20473;-75
2022/11/17 04:19:03;;;;;;;37.97;24.07;;;;;;;-143.84;79.92;45193.78;5108963;28;20447;-75
2022/11/17 04:21:30;;;;;;;46.47;25.30;;;;;;;-143.84;79.96;45174.75;5108969;28;20450;-75
2022/11/17 04:23:57;;;;;;;38.67;24.77;;;;;;;-143.84;80.07;45174.75;5108855;28;20442;-75
2022/11/17 04:29:10;;;;;;;41.10;26.00;;;;;;;-143.84;80.45;45186.16;5108937;28;20572;-75
2022/11/17 04:31:39;;;;;;;38.13;26.40;;;;;;;-143.84;80.84;45195.69;5109033;28;20439;-75
2022/11/17 04:34:07;;;;;;;43.27;26.47;;;;;;;-143.84;80.65;45180.47;5109267;28;20439;-75
2022/11/17 04:36:36;;;;;;;40.20;25.30;;;;;;;-143.84;80.60;45193.78;5109110;28;20430;-75
2022/11/17 04:39:04;;;;;;;39.43;25.90;;;;;;;-143.84;80.79;45167.13;5083549;28;20458;-75
2022/11/17 04:44:17;;;;;;;35.67;24.80;;;;;;;-143.84;80.87;45176.66;5109067;28;20907;-75
2022/11/17 04:46:46;;;;;;;30.53;21.67;;;;;;;-143.84;81.10;45169.03;5136896;27;20439;-74
2022/11/17 04:49:28;;;;;;;34.93;23.67;;;;;;;-143.84;81.28;45189.97;5151614;27;20437;-75
2022/11/17 04:51:55;;;;;;;41.17;25.13;;;;;;;-143.84;81.55;45172.84;5108496;22;20496;-75
2022/11/17 04:54:24;;;;;;;30.67;22.57;;;;;;;-143.84;81.28;45203.31;5092258;28;20449;-75
2022/11/17 04:56:52;;;;;;;30.80;23.10;;;;;;;-143.84;81.61;45226.16;5091635;28;20440;-75
2022/11/17 04:59:19;;;;;;;32.93;24.30;;;;;;;-143.84;81.74;45189.97;5091295;28;20446;-74
2022/11/17 05:01:49;;;;;;;43.53;24.13;;;;;;;-143.84;81.56;45191.88;5091367;28;20447;-75
2022/11/17 05:04:54;;;;;;;32.97;24.87;;;;;;;-143.84;81.62;45201.41;5090274;28;20450;-74
2022/11/17 05:07:07;;;;;;;36.40;24.37;;;;;;;-143.84;81.81;45163.31;5090634;28;20447;-73
2022/11/17 05:09:35;;;;;;;38.97;24.20;;;;;;;-143.84;81.84;45180.47;5090582;28;20455;-73
2022/11/17 05:14:49;;;;;;;35.37;24.00;;;;;;;-143.84;81.36;45172.84;5091438;28;20439;-73
2022/11/17 05:17:17;;;;;;;36.60;25.17;;;;;;;-143.84;81.49;45184.25;5091097;28;20552;-72
2022/11/17 05:19:45;;;;;;;34.70;24.87;;;;;;;-143.84;81.49;45193.78;5091362;28;20448;-72
2022/11/17 05:24:58;;;;;;;35.70;24.10;;;;;;;-143.84;81.76;45191.88;5090958;28;20489;-73
2022/11/17 05:27:26;;;;;;;33.63;24.50;;;;;;;-143.84;81.78;45167.13;5090179;28;20498;-73
2022/11/17 05:29:53;;;;;;;33.03;21.90;;;;;;;-143.84;81.99;45170.94;5090860;28;20989;-73
2022/11/17 05:32:22;;;;;;;28.27;20.70;;;;;;;-143.84;82.32;45188.06;5090697;28;20451;-73
2022/11/17 05:34:49;;;;;;;29.67;20.27;;;;;;;-143.84;82.33;45176.66;5089631;28;20855;-72
2022/11/17 05:37:16;;;;;;;30.93;22.53;;;;;;;-143.84;82.33;45178.56;5091651;28;20489;-71
2022/11/17 05:39:43;;;;;;;33.03;20.80;;;;;;;-143.84;82.18;45184.25;5088909;28;21070;-76
2022/11/17 05:42:11;;;;;;;29.60;21.20;;;;;;;-143.84;82.15;45170.94;5090110;28;20443;-76
2022/11/17 05:44:38;;;;;;;33.10;21.30;;;;;;;-143.84;81.94;45163.31;5089928;28;20446;-76
2022/11/17 05:47:06;;;;;;;34.03;22.10;;;;;;;-143.84;82.05;45201.41;5089859;28;20446;-76
2022/11/17 05:49:34;;;;;;;27.97;20.60;;;;;;;-143.84;81.87;45197.59;5089870;28;20439;-73
2022/11/17 05:52:01;;;;;;;30.17;21.70;;;;;;;-143.84;81.60;45180.47;5088439;28;21008;-76
2022/11/17 05:54:28;;;;;;;29.63;21.20;;;;;;;-143.84;81.14;45184.25;5090601;28;20497;-73
2022/11/17 05:56:59;;;;;;;34.00;23.90;;;;;;;-143.84;81.07;45189.97;5091247;28;20443;-73
2022/11/17 05:59:30;;;;;;;35.47;22.63;;;;;;;-143.84;80.73;45191.88;5091356;28;20443;-73
2022/11/17 06:02:00;;;;;;;33.23;22.30;;;;;;;-143.84;80.85;45163.31;5090883;28;20450;-75
2022/11/17 06:04:28;;;;;;;31.17;21.50;;;;;;;-143.84;80.84;45155.69;5090704;28;20812;-75
2022/11/17 06:06:59;;;;;;;31.50;21.60;;;;;;;-143.84;80.71;45197.59;5075933;28;20464;-74
2022/11/17 06:09:27;;;;;;;27.40;20.63;;;;;;;-143.84;80.56;45186.16;5071705;28;20452;-74
2022/11/17 06:11:54;;;;;;;32.03;22.10;;;;;;;-143.84;80.41;45159.50;5071619;28;20511;-73
2022/11/17 06:14:21;;;;;;;27.90;20.20;;;;;;;-143.84;80.43;45170.94;5071142;28;20447;-74
2022/11/17 06:16:51;;;;;;;34.97;21.80;;;;;;;-143.84;80.34;45186.16;5071024;28;20441;-74
2022/11/17 06:19:22;;;;;;;32.73;20.93;;;;;;;-143.84;80.22;45191.88;5070308;28;20484;-74
2022/11/17 06:21:50;;;;;;;31.77;20.77;;;;;;;-143.84;80.76;45184.25;5071265;28;20851;-74
2022/11/17 06:24:19;;;;;;;39.70;22.03;;;;;;;-143.84;80.60;45176.66;5070942;28;20671;-73
2022/11/17 06:26:47;;;;;;;33.03;20.97;;;;;;;-143.84;80.75;45178.56;5071046;28;20447;-74
2022/11/17 06:29:15;;;;;;;30.53;22.07;;;;;;;-143.84;80.68;45172.84;5071842;28;20436;-74
2022/11/17 06:31:44;;;;;;;40.00;21.03;;;;;;;-143.84;80.19;45172.84;5072495;28;20479;-74
2022/11/17 06:34:13;;;;;;;39.23;19.00;;;;;;;-143.84;79.77;45172.84;5072035;28;20449;-74
2022/11/17 06:36:40;;;;;;;31.37;18.60;;;;;;;-143.84;79.33;45163.31;5071867;28;20927;-74
2022/11/17 06:39:07;;;;;;;33.87;18.57;;;;;;;-143.84;79.48;45157.59;5070553;28;20487;-74
2022/11/17 06:41:36;;;;;;;25.73;17.20;;;;;;;-143.84;78.82;45169.03;5077959;28;20448;-74
2022/11/17 06:44:03;;;;;;;23.80;18.10;;;;;;;-143.84;78.64;45146.19;5095922;22;20456;-75
2022/11/17 06:46:36;;;;;;;28.37;18.20;;;;;;;-143.84;78.82;45161.41;5073227;28;21311;-75
2022/11/17 06:49:08;;;;;;;28.90;16.67;;;;;;;-143.84;77.61;45178.56;5075756;28;20468;-75
2022/11/17 06:51:35;;;;;;;21.17;15.47;;;;;;;-143.84;77.12;45163.31;5072523;28;20491;-75
2022/11/17 06:54:04;;;;;;;23.67;17.00;;;;;;;-143.84;76.55;45167.13;5072194;28;20454;-74
2022/11/17 06:56:31;;;;;;;23.30;16.00;;;;;;;-143.84;75.25;45186.16;5077868;28;20446;-75
2022/11/17 06:58:59;;;;;;;28.17;15.10;;;;;;;-143.84;75.09;45180.47;5068676;28;21069;-75
2022/11/17 07:01:27;;;;;;;21.33;15.73;;;;;;;-143.84;74.73;45176.66;5069696;28;20468;-75
2022/11/17 07:03:54;;;;;;;22.93;15.47;;;;;;;-143.84;74.28;45189.97;5064857;28;20508;-75
2022/11/17 07:06:21;;;;;;;17.73;13.60;;;;;;;-143.84;73.90;45150.00;5071167;28;20448;-75
2022/11/17 07:08:49;;;;;;;17.17;14.27;;;;;;;-143.84;73.31;45155.69;5075540;28;20459;-75
2022/11/17 07:11:17;;;;;;;27.43;15.70;;;;;;;-143.84;72.93;45138.56;5072776;28;20456;-75
2022/11/17 07:13:44;;;;;;;18.90;13.47;;;;;;;-143.84;71.91;45134.75;5067363;28;20456;-75
2022/11/17 07:16:15;;;;;;;22.20;16.00;;;;;;;-143.84;71.00;45153.81;5074749;28;20442;-75
2022/11/17 07:18:42;;;;;;;18.20;15.07;;;;;;;-143.84;71.74;45163.31;5066303;28;20488;-75
2022/11/17 07:21:12;;;;;;;31.57;14.37;;;;;;;-143.84;70.21;45151.91;5065350;28;20444;-75
2022/11/17 07:23:43;;;;;;;17.33;13.13;;;;;;;-143.84;69.82;45129.03;5072095;28;20451;-75
2022/11/17 07:26:10;;;;;;;18.50;13.87;;;;;;;-143.84;69.54;45134.75;5066948;28;20441;-75
2022/11/17 07:28:37;;;;;;;23.20;11.87;;;;;;;-143.84;68.08;45138.56;5067190;28;20474;-75
2022/11/17 07:31:06;;;;;;;13.60;11.60;;;;;;;-143.84;67.06;45150.00;5067131;28;20718;-75
2022/11/17 07:33:34;;;;;;;21.40;13.87;;;;;;;-143.84;66.40;45151.91;5066942;28;20449;-75
2022/11/17 07:36:08;;;;;;;24.33;13.10;;;;;;;-143.84;65.96;45134.75;5076738;28;20459;-75
2022/11/17 07:38:36;;;;;;;16.80;12.47;;;;;;;-143.84;65.58;45146.19;5075781;28;20508;-75
2022/11/17 07:41:03;;;;;;;19.97;13.57;;;;;;;-143.84;64.31;45130.94;5076010;28;20555;-75
2022/11/17 07:43:31;;;;;;;20.57;12.17;;;;;;;-143.84;63.23;45130.94;5075538;28;21339;-75
2022/11/17 07:45:58;;;;;;;18.90;12.30;;;;;;;-143.84;62.90;45130.94;5071856;28;20480;-75
2022/11/17 07:48:25;;;;;;;21.50;10.90;;;;;;;-143.84;62.92;45111.91;5082194;22;20491;-75
2022/11/17 07:50:54;;;;;;;23.20;12.77;;;;;;;-143.84;62.09;45136.66;5079832;28;20474;-75
2022/11/17 07:53:21;;;;;;;16.93;11.30;;;;;;;-143.84;62.09;45102.38;5081541;28;20894;-75
2022/11/17 07:55:48;;;;;;;15.00;11.70;;;;;;;-143.84;61.46;45111.91;5080276;28;21020;-76
2022/11/17 07:58:15;;;;;;;18.10;11.97;;;;;;;-143.84;61.55;45127.13;5080019;28;20483;-75
2022/11/17 08:00:42;;;;;;;13.87;11.83;;;;;;;-143.84;60.56;45132.84;5078688;28;20460;-76
2022/11/17 08:03:10;;;;;;;15.23;11.47;;;;;;;-143.84;60.42;45121.44;5078952;28;20970;-76
2022/11/17 08:05:38;;;;;;;12.13;10.33;;;;;;;-143.84;59.04;45113.81;5080930;28;20539;-75
2022/11/17 08:08:08;;;;;;;25.13;11.80;;;;;;;-143.84;59.41;45104.28;5077416;28;20436;-75
2022/11/17 08:10:35;;;;;;;12.30;11.03;;;;;;;-143.84;58.49;45142.38;5088968;28;20522;-75
2022/11/17 08:13:02;;;;;;;19.07;12.00;;;;;;;-143.84;57.61;45110.00;5088848;28;20836;-75
2022/11/17 08:15:31;;;;;;;17.63;10.90;;;;;;;-143.84;57.79;45130.94;5086791;28;20450;-75
2022/11/17 08:18:00;;;;;;;22.47;11.90;;;;;;;-143.84;55.24;45123.34;5087312;28;20480;-75
2022/11/17 08:20:28;;;;;;;13.50;10.00;;;;;;;-143.84;54.69;45121.44;5088001;28;20447;-75
2022/11/17 08:22:56;;;;;;;14.93;10.73;;;;;;;-143.84;55.60;45110.00;5089006;28;20431;-75
2022/11/17 08:25:27;;;;;;;12.77;10.03;;;;;;;-143.84;54.32;45110.00;5092950;28;20432;-75
2022/11/17 08:27:57;;;;;;;17.10;11.77;;;;;;;-143.84;53.41;45092.88;5092451;28;20448;-75
2022/11/17 08:30:27;;;;;;;18.67;13.37;;;;;;;-143.84;52.92;45102.38;5092511;28;20435;-76
2022/11/17 08:32:54;;;;;;;21.30;13.20;;;;;;;-143.84;53.27;45123.34;5092685;28;20451;-76
2022/11/17 08:35:23;;;;;;;19.73;12.13;;;;;;;-143.84;53.84;45125.22;5092533;28;20501;-75
2022/11/17 08:37:51;;;;;;;25.50;16.67;;;;;;;-143.84;54.62;45125.22;5091503;28;20447;-75
2022/11/17 08:40:18;;;;;;;38.97;22.17;;;;;;;-143.84;54.80;45073.81;5092270;28;20443;-75
2022/11/17 08:42:52;;;;;;;36.37;22.20;;;;;;;-143.84;52.46;45083.34;5092013;28;20493;-75
2022/11/17 08:45:19;;;;;;;20.33;11.83;;;;;;;-143.84;52.30;45108.09;5092434;28;20510;-76
2022/11/17 08:47:46;;;;;;;70.77;34.33;;;;;;;-143.84;52.43;45096.66;5091904;28;20582;-75
2022/11/17 08:50:14;;;;;;;42.83;23.43;;;;;;;-143.84;54.17;45090.97;5092263;28;20432;-76
2022/11/17 08:52:41;;;;;;;42.90;22.70;;;;;;;-143.84;54.34;45117.63;5091471;28;20431;-76
2022/11/17 08:55:09;;;;;;;26.27;17.67;;;;;;;-143.84;53.21;45121.44;5073358;28;20989;-75
2022/11/17 08:57:37;;;;;;;16.10;11.70;;;;;;;-143.84;54.03;45098.56;5090838;28;20960;-75
2022/11/17 09:00:07;;;;;;;23.53;12.23;;;;;;;-143.84;54.60;45110.00;5073629;28;20572;-75
2022/11/17 09:22:46;;;;;;;15.60;10.30;;;;;;;-143.84;59.17;45121.44;5087194;28;20866;-75
2022/11/17 09:25:14;;;;;;;16.33;10.60;;;;;;;-143.84;60.31;45140.47;5088475;28;20472;-75
2022/11/17 09:27:41;;;;;;;11.90;9.67;;;;;;;-143.84;60.05;45115.72;5088781;28;20863;-75
2022/11/17 09:30:09;;;;;;;13.87;10.70;;;;;;;-143.84;60.40;45111.91;5090406;28;20444;-75
2022/11/17 09:32:37;;;;;;;13.40;10.80;;;;;;;-143.84;60.29;45121.44;5090590;28;20523;-75
2022/11/17 09:35:07;;;;;;;18.67;11.53;;;;;;;-143.84;60.68;45129.03;5089604;28;20467;-75
2022/11/17 09:37:35;;;;;;;15.67;10.70;;;;;;;-143.84;61.43;45138.56;5090667;28;20874;-75
2022/11/17 09:40:03;;;;;;;11.97;10.47;;;;;;;-143.84;61.44;45121.44;5090591;28;20996;-75
2022/11/17 09:42:31;;;;;;;12.90;9.40;;;;;;;-143.84;61.82;45127.13;5090329;28;20808;-75
2022/11/17 09:45:02;;;;;;;15.43;8.47;;;;;;;-143.84;61.23;45140.47;5090866;28;20455;-75
2022/11/17 09:47:37;;;;;;;17.03;8.90;;;;;;;-143.84;61.22;45127.13;5088861;28;20494;-75
2022/11/17 09:50:13;;;;;;;12.33;8.60;;;;;;;-143.84;61.56;45129.03;5089309;28;20466;-76
2022/11/17 09:52:51;;;;;;;13.33;7.50;;;;;;;-143.84;61.89;45083.34;5089042;28;20947;-76
2022/11/17 09:55:26;;;;;;;11.40;7.80;;;;;;;-143.84;62.72;45123.34;5089035;28;20448;-76
2022/11/17 09:58:01;;;;;;;15.63;8.00;;;;;;;-143.84;63.71;45092.88;5088534;28;20985;-76
2022/11/17 10:00:29;;;;;;;13.63;8.50;;;;;;;-143.84;65.73;45127.13;5086010;28;20449;-75
2022/11/17 10:02:56;;;;;;;12.73;8.27;;;;;;;-143.84;66.67;45134.75;5085610;28;20506;-75
2022/11/17 10:05:29;;;;;;;12.37;9.20;;;;;;;-143.84;68.87;45146.19;5090029;28;20963;-75
2022/11/17 10:07:59;;;;;;;15.70;7.83;;;;;;;-143.84;68.66;45115.72;5086456;28;20948;-75
2022/11/17 10:10:37;;;;;;;8.93;8.03;;;;;;;-143.84;69.30;45155.69;5090643;28;20891;-74
2022/11/17 10:13:11;;;;;;;25.07;10.10;;;;;;;-143.84;69.69;45151.91;5088123;28;20454;-75
2022/11/17 10:15:46;;;;;;;12.60;8.37;;;;;;;-143.84;70.43;45125.22;5090635;28;20451;-75
2022/11/17 10:18:14;;;;;;;18.53;9.33;;;;;;;-143.84;71.12;45130.94;5091340;28;20442;-75
2022/11/17 10:20:43;;;;;;;12.83;9.13;;;;;;;-143.84;72.17;45163.31;5091371;28;20485;-75
2022/11/17 10:23:14;;;;;;;15.43;8.00;;;;;;;-143.84;72.36;45129.03;5090783;28;20462;-75
2022/11/17 10:25:44;;;;;;;9.23;8.33;;;;;;;-143.84;73.17;45132.84;5090853;28;20432;-75
2022/11/17 10:28:25;;;;;;;15.40;9.03;;;;;;;-143.84;73.07;45146.19;5090990;28;20450;-74
2022/11/17 10:30:59;;;;;;;12.20;9.20;;;;;;;-143.84;73.99;45151.91;5090979;28;20497;-75
2022/11/17 10:33:38;;;;;;;10.70;8.33;;;;;;;-143.84;74.75;45136.66;5090991;28;20452;-75
2022/11/17 10:36:13;;;;;;;13.10;9.90;;;;;;;-143.84;75.87;45136.66;5091081;28;20450;-75
2022/11/17 10:38:45;;;;;;;13.20;10.57;;;;;;;-143.84;76.92;45132.84;5091123;28;20583;-74
2022/11/17 10:41:18;;;;;;;13.77;9.10;;;;;;;-143.84;77.23;45169.03;5090827;28;20982;-74
2022/11/17 10:43:57;;;;;;;14.00;9.60;;;;;;;-143.84;78.23;45169.03;5091180;28;20423;-74
2022/11/17 10:46:26;;;;;;;13.67;10.10;;;;;;;-143.84;78.37;45161.41;5089886;28;20463;-74
2022/11/17 10:48:59;;;;;;;18.10;10.83;;;;;;;-143.84;79.31;45148.09;5090438;28;21046;-74
2022/11/17 10:51:27;;;;;;;12.80;9.30;;;;;;;-143.84;79.62;45134.75;5090262;28;20882;-74
2022/11/17 10:54:04;;;;;;;11.43;9.60;;;;;;;-143.84;79.70;45127.13;5090111;28;20433;-74
2022/11/17 10:56:39;;;;;;;17.00;10.00;;;;;;;-143.84;79.84;45174.75;5089982;28;21010;-75
2022/11/17 10:59:15;;;;;;;20.30;9.53;;;;;;;-143.84;80.56;45163.31;5089826;28;21090;-75
2022/11/17 11:01:44;;;;;;;10.43;8.30;;;;;;;-143.84;80.12;45153.81;5090104;28;20446;-75
2022/11/17 11:04:33;;;;;;;13.37;8.60;;;;;;;-143.84;80.52;45159.50;5090150;28;20441;-75
2022/11/17 11:07:11;;;;;;;13.20;8.70;;;;;;;-143.84;80.60;45142.38;5088688;28;20453;-74
2022/11/17 11:09:44;;;;;;;14.53;8.50;;;;;;;-143.84;81.20;45163.31;5089044;28;20977;-74
2022/11/17 11:12:19;;;;;;;11.67;8.53;;;;;;;-143.84;81.18;45130.94;5089412;28;20438;-75
2022/11/17 11:14:50;;;;;;;12.30;8.70;;;;;;;-143.84;80.76;45144.28;5090511;28;20803;-75
2022/11/17 11:17:19;;;;;;;12.20;8.43;;;;;;;-143.84;80.74;45138.56;5090429;28;20955;-74
2022/11/17 11:19:51;;;;;;;13.27;8.63;;;;;;;-143.84;80.79;45140.47;5090341;28;20577;-74
2022/11/17 11:22:34;;;;;;;10.97;9.73;;;;;;;-143.84;81.14;45155.69;5089835;28;20515;-75
2022/11/17 11:25:14;;;;;;;13.93;9.27;;;;;;;-143.84;80.71;45144.28;5088531;28;20493;-75
2022/11/17 11:27:56;;;;;;;15.37;10.80;;;;;;;-143.84;81.38;45153.81;5088997;28;20449;-75
2022/11/17 11:30:24;;;;;;;18.30;11.60;;;;;;;-143.84;82.15;45167.13;5089041;28;20451;-75
2022/11/17 11:33:03;;;;;;;14.10;11.37;;;;;;;-143.84;81.88;45142.38;5089202;28;20451;-75
2022/11/17 11:35:45;;;;;;;16.73;11.97;;;;;;;-143.84;82.30;45161.41;5089374;28;20547;-75
2022/11/17 11:38:37;;;;;;;18.13;13.20;;;;;;;-143.84;82.75;45159.50;5088738;28;20525;-75
2022/11/17 11:41:18;;;;;;;15.20;11.20;;;;;;;-143.84;83.18;45170.94;5076204;28;20467;-75
2022/11/17 11:43:56;;;;;;;14.63;11.10;;;;;;;-143.84;83.68;45159.50;5089106;28;20520;-75
2022/11/17 11:46:34;;;;;;;18.03;11.03;;;;;;;-143.84;83.67;45148.09;5088990;28;20450;-74
2022/11/17 11:49:13;;;;;;;24.03;11.83;;;;;;;-143.84;83.81;45167.13;5088940;28;20476;-74
2022/11/17 11:51:40;;;;;;;16.20;11.77;;;;;;;-143.84;84.21;45193.78;5089153;28;20848;-75
2022/11/17 11:54:15;;;;;;;23.57;12.13;;;;;;;-143.84;84.61;45129.03;5088300;28;20443;-75
2022/11/17 11:56:44;;;;;;;20.13;12.17;;;;;;;-143.84;84.52;45169.03;5088382;28;20443;-75
2022/11/17 11:59:18;;;;;;;18.97;12.60;;;;;;;-143.84;84.32;45170.94;5092530;28;20504;-75
2022/11/17 12:01:56;;;;;;;15.63;10.83;;;;;;;-143.84;84.46;45165.22;5093025;28;20483;-75
2022/11/17 12:04:37;;;;;;;15.80;11.30;;;;;;;-143.84;84.80;45172.84;5093969;28;20946;-73
2022/11/17 12:07:14;;;;;;;17.03;11.40;;;;;;;-143.84;85.03;45150.00;5093353;28;20441;-73